createdAt,value
2018-08-04T00:00:17.570Z,99241.33
2018-08-04T00:02:46.827Z,99245.71
2018-08-04T00:05:16.039Z,99245.34
2018-08-04T00:07:45.276Z,99241.81
2018-08-04T00:10:18.527Z,99244.17
2018-08-04T00:12:49.446Z,99247.34
2018-08-04T00:15:18.874Z,99243.84
2018-08-04T00:17:48.861Z,99243.68
2018-08-04T00:20:18.278Z,99243.48
2018-08-04T00:22:47.882Z,99241.81
2018-08-04T00:25:17.058Z,99240.96
2018-08-04T00:27:46.270Z,99235.92
2018-08-04T00:30:15.846Z,99241.29
2018-08-04T00:32:45.045Z,99227.52
2018-08-04T00:35:14.274Z,99235.23
2018-08-04T00:37:43.454Z,99233.56
2018-08-04T00:40:13.483Z,99240.77
2018-08-04T00:42:43.130Z,99238.24
2018-08-04T00:45:12.294Z,99234.70
2018-08-04T00:47:41.479Z,99243.61
2018-08-04T00:50:11.124Z,99241.91
2018-08-04T00:52:40.278Z,99232.16
2018-08-04T00:55:09.531Z,99238.56
2018-08-04T00:57:38.666Z,99240.72
2018-08-04T01:00:07.901Z,99235.03
2018-08-04T01:02:37.088Z,99235.52
2018-08-04T01:05:06.382Z,99233.00
2018-08-04T01:07:35.538Z,99233.50
2018-08-04T01:10:05.614Z,99233.17
2018-08-04T01:12:34.886Z,99230.48
2018-08-04T01:15:04.127Z,99228.27
2018-08-04T01:17:33.319Z,99226.11
2018-08-04T01:20:03.745Z,99225.74
2018-08-04T01:22:34.035Z,99225.74
2018-08-04T01:25:03.302Z,99225.41
2018-08-04T01:27:32.563Z,99228.09
2018-08-04T01:30:02.063Z,99229.92
2018-08-04T01:32:31.248Z,99229.08
2018-08-04T01:35:00.439Z,99230.94
2018-08-04T01:37:29.843Z,99234.95
2018-08-04T01:39:59.061Z,99231.10
2018-08-04T01:42:28.260Z,99225.38
2018-08-04T01:44:57.443Z,99223.19
2018-08-04T01:47:26.611Z,99229.06
2018-08-04T01:49:55.834Z,99221.52
2018-08-04T01:52:25.010Z,99225.05
2018-08-04T01:54:54.210Z,99215.30
2018-08-04T01:57:23.391Z,99220.67
2018-08-04T01:59:52.569Z,99223.87
2018-08-04T02:02:21.861Z,99219.16
2018-08-04T02:04:51.032Z,99225.50
2018-08-04T02:07:20.448Z,99233.91
2018-08-04T02:09:50.035Z,99231.71
2018-08-04T02:12:20.249Z,99226.84
2018-08-04T02:14:49.436Z,99230.05
2018-08-04T02:17:18.691Z,99227.00
2018-08-04T02:19:47.934Z,99221.31
2018-08-04T02:22:17.147Z,99228.86
2018-08-04T02:24:46.324Z,99225.33
2018-08-04T02:27:15.522Z,99224.16
2018-08-04T02:29:44.702Z,99224.16
2018-08-04T02:32:13.889Z,99224.16
2018-08-04T02:34:43.196Z,99220.78
2018-08-04T02:37:12.418Z,99220.30
2018-08-04T02:39:41.602Z,99217.61
2018-08-04T02:42:10.884Z,99223.46
2018-08-04T02:44:40.027Z,99216.92
2018-08-04T02:47:09.235Z,99212.05
2018-08-04T02:49:38.417Z,99211.56
2018-08-04T02:52:07.632Z,99208.03
2018-08-04T02:54:36.886Z,99207.70
2018-08-04T02:57:06.114Z,99207.34
2018-08-04T02:59:35.295Z,99214.05
2018-08-04T03:02:04.607Z,99209.20
2018-08-04T03:04:33.822Z,99212.70
2018-08-04T03:07:03.006Z,99211.03
2018-08-04T03:09:32.196Z,99213.71
2018-08-04T03:12:01.399Z,99213.39
2018-08-04T03:14:30.625Z,99217.41
2018-08-04T03:16:59.787Z,99211.19
2018-08-04T03:19:28.991Z,99214.36
2018-08-04T03:21:58.184Z,99208.31
2018-08-04T03:24:27.401Z,99209.00
2018-08-04T03:26:56.580Z,99210.17
2018-08-04T03:29:25.796Z,99210.66
2018-08-04T03:31:54.991Z,99210.17
2018-08-04T03:34:24.166Z,99215.53
2018-08-04T03:36:53.396Z,99214.84
2018-08-04T03:39:22.590Z,99209.98
2018-08-04T03:41:51.770Z,99209.13
2018-08-04T03:44:20.978Z,99209.00
2018-08-04T03:46:50.253Z,99205.63
2018-08-04T03:49:19.446Z,99206.12
2018-08-04T03:51:54.858Z,99207.94
2018-08-04T03:54:24.079Z,99208.30
2018-08-04T03:56:53.296Z,99210.30
2018-08-04T03:59:22.483Z,99210.78
2018-08-04T04:01:51.710Z,99210.45
2018-08-04T04:04:20.903Z,99209.97
2018-08-04T04:06:51.106Z,99207.77
2018-08-04T04:09:20.274Z,99215.45
2018-08-04T04:11:49.490Z,99211.43
2018-08-04T04:14:18.690Z,99202.22
2018-08-04T04:16:47.903Z,99200.87
2018-08-04T04:19:17.098Z,99202.73
2018-08-04T04:21:46.315Z,99205.91
2018-08-04T04:24:15.499Z,99213.45
2018-08-04T04:26:44.695Z,99213.94
2018-08-04T04:29:13.874Z,99211.42
2018-08-04T04:31:43.118Z,99214.59
2018-08-04T04:34:12.306Z,99222.30
2018-08-04T04:36:41.494Z,99220.59
2018-08-04T04:39:11.535Z,99222.30
2018-08-04T04:41:41.222Z,99221.94
2018-08-04T04:44:10.398Z,99229.64
2018-08-04T04:46:40.657Z,99233.82
2018-08-04T04:49:11.154Z,99243.20
2018-08-04T04:51:41.185Z,99236.98
2018-08-04T04:54:10.676Z,99238.00
2018-08-04T04:56:39.886Z,99231.30
2018-08-04T04:59:09.094Z,99232.28
2018-08-04T05:01:38.399Z,99231.30
2018-08-04T05:04:07.627Z,99232.64
2018-08-04T05:06:36.863Z,99232.80
2018-08-04T05:09:07.627Z,99236.95
2018-08-04T05:11:36.806Z,99233.78
2018-08-04T05:14:06.187Z,99237.47
2018-08-04T05:16:35.397Z,99244.65
2018-08-04T05:19:04.684Z,99249.67
2018-08-04T05:21:33.916Z,99242.12
2018-08-04T05:24:03.219Z,99242.46
2018-08-04T05:26:32.497Z,99234.58
2018-08-04T05:29:01.702Z,99242.62
2018-08-04T05:31:30.882Z,99240.30
2018-08-04T05:34:00.079Z,99240.95
2018-08-04T05:36:29.257Z,99248.98
2018-08-04T05:38:58.458Z,99247.13
2018-08-04T05:41:27.775Z,99249.47
2018-08-04T05:43:56.998Z,99253.65
2018-08-04T05:46:26.195Z,99264.70
2018-08-04T05:48:56.869Z,99264.70
2018-08-04T05:51:26.077Z,99260.19
2018-08-04T05:53:55.314Z,99258.36
2018-08-04T05:56:24.610Z,99258.84
2018-08-04T05:58:54.218Z,99267.22
2018-08-04T06:01:23.490Z,99269.41
2018-08-04T06:03:53.120Z,99278.78
2018-08-04T06:06:22.309Z,99278.78
2018-08-04T06:08:51.489Z,99274.77
2018-08-04T06:11:20.715Z,99274.43
2018-08-04T06:13:49.897Z,99273.42
2018-08-04T06:16:19.073Z,99276.10
2018-08-04T06:18:48.589Z,99274.27
2018-08-04T06:21:17.806Z,99273.78
2018-08-04T06:23:46.983Z,99273.78
2018-08-04T06:26:16.195Z,99275.62
2018-08-04T06:28:45.390Z,99278.30
2018-08-04T06:31:14.634Z,99276.95
2018-08-04T06:33:43.823Z,99276.47
2018-08-04T06:36:13.044Z,99285.84
2018-08-04T06:38:42.265Z,99285.97
2018-08-04T06:41:11.754Z,99287.19
2018-08-04T06:43:40.946Z,99289.98
2018-08-04T06:46:10.200Z,99285.14
2018-08-04T06:48:39.383Z,99287.30
2018-08-04T06:51:08.647Z,99282.10
2018-08-04T06:53:37.875Z,99286.48
2018-08-04T06:56:07.222Z,99289.66
2018-08-04T06:58:36.399Z,99289.66
2018-08-04T07:01:05.678Z,99282.95
2018-08-04T07:03:34.899Z,99288.80
2018-08-04T07:06:04.220Z,99288.80
2018-08-04T07:08:33.426Z,99285.63
2018-08-04T07:11:02.617Z,99286.97
2018-08-04T07:13:31.807Z,99294.52
2018-08-04T07:16:01.090Z,99296.84
2018-08-04T07:18:30.295Z,99295.86
2018-08-04T07:20:59.511Z,99297.69
2018-08-04T07:23:28.728Z,99294.52
2018-08-04T07:25:57.985Z,99290.50
2018-08-04T07:28:27.210Z,99291.32
2018-08-04T07:30:56.526Z,99294.86
2018-08-04T07:33:26.165Z,99294.37
2018-08-04T07:35:55.416Z,99302.41
2018-08-04T07:38:24.603Z,99294.37
2018-08-04T07:40:53.819Z,99288.52
2018-08-04T07:43:22.998Z,99288.85
2018-08-04T07:45:52.238Z,99291.38
2018-08-04T07:48:21.454Z,99295.39
2018-08-04T07:50:50.626Z,99297.58
2018-08-04T07:53:19.835Z,99302.78
2018-08-04T07:55:49.002Z,99308.99
2018-08-04T07:58:18.190Z,99307.98
2018-08-04T08:00:47.383Z,99308.67
2018-08-04T08:03:16.588Z,99314.03
2018-08-04T08:05:45.790Z,99310.35
2018-08-04T08:08:15.039Z,99306.53
2018-08-04T08:10:44.272Z,99300.66
2018-08-04T08:13:13.446Z,99300.66
2018-08-04T08:15:42.638Z,99297.00
2018-08-04T08:18:11.830Z,99296.52
2018-08-04T08:20:41.051Z,99308.41
2018-08-04T08:23:11.249Z,99298.88
2018-08-04T08:25:45.584Z,99302.41
2018-08-04T08:28:14.779Z,99301.40
2018-08-04T08:30:45.041Z,99305.26
2018-08-04T08:33:14.242Z,99301.57
2018-08-04T08:35:43.464Z,99304.12
2018-08-04T08:38:12.638Z,99303.61
2018-08-04T08:40:41.878Z,99303.45
2018-08-04T08:43:11.066Z,99302.31
2018-08-04T08:45:40.291Z,99310.35
2018-08-04T08:48:10.573Z,99318.56
2018-08-04T08:50:39.878Z,99313.20
2018-08-04T08:53:09.113Z,99315.73
2018-08-04T08:55:38.343Z,99317.76
2018-08-04T08:58:07.655Z,99316.78
2018-08-04T09:00:37.015Z,99317.11
2018-08-04T09:03:06.472Z,99316.13
2018-08-04T09:05:35.722Z,99313.30
2018-08-04T09:08:05.204Z,99318.98
2018-08-04T09:10:34.403Z,99315.81
2018-08-04T09:13:04.124Z,99322.69
2018-08-04T09:15:33.349Z,99324.03
2018-08-04T09:18:02.671Z,99322.05
2018-08-04T09:20:31.919Z,99315.67
2018-08-04T09:23:01.156Z,99319.41
2018-08-04T09:25:30.306Z,99317.05
2018-08-04T09:27:59.499Z,99325.45
2018-08-04T09:30:28.750Z,99320.76
2018-08-04T09:32:57.971Z,99318.80
2018-08-04T09:35:27.149Z,99323.19
2018-08-04T09:37:56.450Z,99314.13
2018-08-04T09:40:25.670Z,99315.15
2018-08-04T09:42:54.899Z,99319.02
2018-08-04T09:45:25.111Z,99321.69
2018-08-04T09:47:54.319Z,99322.87
2018-08-04T09:50:23.490Z,99314.54
2018-08-04T09:52:52.684Z,99317.06
2018-08-04T09:55:21.995Z,99315.07
2018-08-04T09:57:51.215Z,99313.20
2018-08-04T10:00:25.702Z,99304.51
2018-08-04T10:02:54.974Z,99304.19
2018-08-04T10:05:24.169Z,99299.67
2018-08-04T10:07:53.413Z,99299.02
2018-08-04T10:10:22.628Z,99301.55
2018-08-04T10:12:51.856Z,99306.25
2018-08-04T10:15:21.041Z,99306.42
2018-08-04T10:17:50.270Z,99308.45
2018-08-04T10:20:19.550Z,99312.31
2018-08-04T10:22:48.790Z,99312.16
2018-08-04T10:25:17.990Z,99304.95
2018-08-04T10:27:47.232Z,99309.14
2018-08-04T10:30:16.488Z,99307.67
2018-08-04T10:32:45.818Z,99311.02
2018-08-04T10:35:14.971Z,99314.87
2018-08-04T10:37:44.186Z,99316.09
2018-08-04T10:40:13.407Z,99320.28
2018-08-04T10:42:42.726Z,99320.11
2018-08-04T10:45:12.014Z,99318.13
2018-08-04T10:47:41.298Z,99314.95
2018-08-04T10:50:10.638Z,99313.44
2018-08-04T10:52:39.919Z,99322.18
2018-08-04T10:55:09.138Z,99317.50
2018-08-04T10:57:38.358Z,99320.38
2018-08-04T11:00:09.021Z,99312.16
2018-08-04T11:02:38.314Z,99311.67
2018-08-04T11:05:08.032Z,99315.53
2018-08-04T11:07:37.259Z,99318.91
2018-08-04T11:10:06.855Z,99320.94
2018-08-04T11:12:36.156Z,99324.80
2018-08-04T11:15:05.390Z,99321.95
2018-08-04T11:17:34.582Z,99315.08
2018-08-04T11:20:03.923Z,99307.35
2018-08-04T11:22:33.114Z,99308.89
2018-08-04T11:25:02.342Z,99303.35
2018-08-04T11:27:31.534Z,99313.08
2018-08-04T11:30:00.734Z,99309.24
2018-08-04T11:32:29.919Z,99313.11
2018-08-04T11:34:59.110Z,99302.20
2018-08-04T11:37:28.318Z,99303.38
2018-08-04T11:39:57.502Z,99311.27
2018-08-04T11:42:26.813Z,99299.70
2018-08-04T11:44:56.011Z,99298.85
2018-08-04T11:47:25.226Z,99304.58
2018-08-04T11:49:54.478Z,99303.08
2018-08-04T11:52:23.701Z,99301.23
2018-08-04T11:54:52.946Z,99303.27
2018-08-04T11:57:22.170Z,99298.22
2018-08-04T11:59:51.373Z,99291.51
2018-08-04T12:02:20.575Z,99290.85
2018-08-04T12:04:50.041Z,99291.53
2018-08-04T12:07:19.299Z,99292.87
2018-08-04T12:09:48.504Z,99286.00
2018-08-04T12:12:17.707Z,99292.70
2018-08-04T12:14:47.021Z,99285.00
2018-08-04T12:17:16.196Z,99287.86
2018-08-04T12:19:45.389Z,99287.16
2018-08-04T12:22:14.577Z,99288.34
2018-08-04T12:24:43.781Z,99282.16
2018-08-04T12:27:13.358Z,99284.05
2018-08-04T12:29:42.600Z,99282.17
2018-08-04T12:32:11.759Z,99274.59
2018-08-04T12:34:40.987Z,99289.73
2018-08-04T12:37:10.130Z,99284.20
2018-08-04T12:39:39.384Z,99282.69
2018-08-04T12:42:08.558Z,99284.39
2018-08-04T12:44:37.920Z,99280.69
2018-08-04T12:47:07.174Z,99262.69
2018-08-04T12:49:36.397Z,99279.53
2018-08-04T12:52:05.586Z,99281.69
2018-08-04T12:54:34.864Z,99279.36
2018-08-04T12:57:03.986Z,99277.84
2018-08-04T12:59:33.272Z,99278.17
2018-08-04T13:02:02.435Z,99272.63
2018-08-04T13:04:31.670Z,99263.23
2018-08-04T13:07:00.848Z,99272.50
2018-08-04T13:09:30.004Z,99261.89
2018-08-04T13:11:59.286Z,99266.77
2018-08-04T13:14:28.458Z,99251.99
2018-08-04T13:16:57.647Z,99255.53
2018-08-04T13:19:26.807Z,99260.05
2018-08-04T13:21:56.072Z,99245.26
2018-08-04T13:24:25.208Z,99256.38
2018-08-04T13:26:54.394Z,99251.00
2018-08-04T13:29:23.813Z,99252.35
2018-08-04T13:31:53.000Z,99249.98
2018-08-04T13:34:22.194Z,99251.33
2018-08-04T13:36:51.415Z,99252.67
2018-08-04T13:39:20.595Z,99245.95
2018-08-04T13:41:49.804Z,99238.41
2018-08-04T13:44:18.995Z,99243.27
2018-08-04T13:46:48.206Z,99244.12
2018-08-04T13:49:17.499Z,99242.27
2018-08-04T13:51:46.709Z,99251.66
2018-08-04T13:54:15.934Z,99247.30
2018-08-04T13:56:45.210Z,99241.92
2018-08-04T13:59:14.387Z,99251.16
2018-08-04T14:01:43.574Z,99251.16
2018-08-04T14:04:12.801Z,99250.66
2018-08-04T14:06:41.991Z,99250.31
2018-08-04T14:09:12.018Z,99247.30
2018-08-04T14:11:41.194Z,99245.30
2018-08-04T14:14:10.391Z,99237.88
2018-08-04T14:16:39.582Z,99240.41
2018-08-04T14:19:08.734Z,99243.95
2018-08-04T14:21:38.019Z,99239.92
2018-08-04T14:24:07.210Z,99240.73
2018-08-04T14:26:36.406Z,99242.93
2018-08-04T14:29:05.630Z,99230.84
2018-08-04T14:31:34.902Z,99231.69
2018-08-04T14:34:04.202Z,99229.00
2018-08-04T14:36:33.405Z,99224.97
2018-08-04T14:39:02.583Z,99226.81
2018-08-04T14:41:31.799Z,99228.16
2018-08-04T14:44:00.939Z,99224.48
2018-08-04T14:46:30.109Z,99221.44
2018-08-04T14:48:59.270Z,99223.95
2018-08-04T14:51:28.595Z,99213.89
2018-08-04T14:53:57.758Z,99222.78
2018-08-04T14:56:26.998Z,99226.81
2018-08-04T14:58:56.461Z,99220.09
2018-08-04T15:01:25.672Z,99221.11
2018-08-04T15:03:54.850Z,99210.20
2018-08-04T15:06:24.019Z,99215.22
2018-08-04T15:08:53.203Z,99220.45
2018-08-04T15:11:22.538Z,99220.95
2018-08-04T15:13:51.785Z,99212.89
2018-08-04T15:16:20.964Z,99216.91
2018-08-04T15:18:50.139Z,99217.23
2018-08-04T15:21:19.293Z,99223.95
2018-08-04T15:23:48.646Z,99227.16
2018-08-04T15:26:17.844Z,99220.09
2018-08-04T15:28:47.105Z,99220.09
2018-08-04T15:31:16.282Z,99219.92
2018-08-04T15:33:45.511Z,99220.45
2018-08-04T15:36:14.673Z,99219.60
2018-08-04T15:38:43.863Z,99217.77
2018-08-04T15:41:13.042Z,99220.77
2018-08-04T15:43:42.222Z,99216.91
2018-08-04T15:46:11.410Z,99220.95
2018-08-04T15:48:40.650Z,99216.42
2018-08-04T15:51:09.914Z,99219.11
2018-08-04T15:53:39.101Z,99215.89
2018-08-04T15:56:08.410Z,99212.89
2018-08-04T15:58:37.734Z,99221.27
2018-08-04T16:01:06.954Z,99219.60
2018-08-04T16:03:36.175Z,99219.11
2018-08-04T16:06:05.330Z,99216.06
2018-08-04T16:08:34.507Z,99211.71
2018-08-04T16:11:03.662Z,99208.67
2018-08-04T16:13:32.850Z,99210.02
2018-08-04T16:16:02.090Z,99216.73
2018-08-04T16:18:31.259Z,99214.05
2018-08-04T16:21:00.445Z,99213.22
2018-08-04T16:23:29.638Z,99208.34
2018-08-04T16:25:58.898Z,99209.69
2018-08-04T16:28:28.142Z,99215.55
2018-08-04T16:30:57.330Z,99211.20
2018-08-04T16:33:26.513Z,99217.42
2018-08-04T16:35:55.669Z,99215.23
2018-08-04T16:38:24.876Z,99214.06
2018-08-04T16:40:54.058Z,99204.48
2018-08-04T16:43:23.235Z,99205.14
2018-08-04T16:45:52.396Z,99219.75
2018-08-04T16:48:21.561Z,99215.41
2018-08-04T16:50:50.750Z,99214.06
2018-08-04T16:53:19.965Z,99225.79
2018-08-04T16:55:49.142Z,99219.25
2018-08-04T16:58:18.321Z,99218.75
2018-08-04T17:00:47.515Z,99221.94
2018-08-04T17:03:16.742Z,99225.96
2018-08-04T17:05:45.945Z,99225.11
2018-08-04T17:08:15.114Z,99229.67
2018-08-04T17:10:44.311Z,99227.30
2018-08-04T17:13:13.474Z,99225.64
2018-08-04T17:15:42.715Z,99229.14
2018-08-04T17:18:11.920Z,99230.66
2018-08-04T17:20:41.171Z,99232.52
2018-08-04T17:23:10.338Z,99233.87
2018-08-04T17:25:39.573Z,99231.67
2018-08-04T17:28:08.926Z,99233.52
2018-08-04T17:30:38.118Z,99240.05
2018-08-04T17:33:07.355Z,99236.20
2018-08-04T17:35:36.607Z,99236.20
2018-08-04T17:38:05.961Z,99234.85
2018-08-04T17:40:35.183Z,99233.68
2018-08-04T17:43:04.334Z,99226.63
2018-08-04T17:45:33.564Z,99237.88
2018-08-04T17:48:02.762Z,99233.84
2018-08-04T17:50:31.995Z,99240.23
2018-08-04T17:53:01.226Z,99247.94
2018-08-04T17:55:30.411Z,99255.50
2018-08-04T17:57:59.574Z,99250.61
2018-08-04T18:00:28.810Z,99258.69
2018-08-04T18:02:58.043Z,99267.59
2018-08-04T18:05:27.335Z,99271.63
2018-08-04T18:07:56.509Z,99272.11
2018-08-04T18:10:25.739Z,99272.28
2018-08-04T18:12:54.922Z,99267.40
2018-08-04T18:15:24.106Z,99276.31
2018-08-04T18:17:53.274Z,99270.25
2018-08-04T18:20:22.492Z,99278.45
2018-08-04T18:22:51.756Z,99278.94
2018-08-04T18:25:20.934Z,99264.69
2018-08-04T18:27:50.306Z,99276.09
2018-08-04T18:30:19.493Z,99280.30
2018-08-04T18:32:48.659Z,99282.98
2018-08-04T18:35:17.981Z,99286.16
2018-08-04T18:37:47.180Z,99289.86
2018-08-04T18:40:16.427Z,99284.98
2018-08-04T18:42:45.637Z,99281.12
2018-08-04T18:45:14.835Z,99290.02
2018-08-04T18:47:43.997Z,99296.38
2018-08-04T18:50:13.162Z,99289.84
2018-08-04T18:52:42.325Z,99286.80
2018-08-04T18:55:11.480Z,99301.59
2018-08-04T18:57:40.782Z,99296.22
2018-08-04T19:00:10.001Z,99310.62
2018-08-04T19:02:39.190Z,99302.25
2018-08-04T19:05:08.446Z,99309.81
2018-08-04T19:07:37.618Z,99316.53
2018-08-04T19:10:06.799Z,99316.69
2018-08-04T19:12:35.979Z,99319.19
2018-08-04T19:15:05.146Z,99326.75
2018-08-04T19:17:34.326Z,99325.41
2018-08-04T19:20:03.552Z,99328.75
2018-08-04T19:22:32.702Z,99324.36
2018-08-04T19:25:01.850Z,99333.76
2018-08-04T19:27:31.158Z,99339.98
2018-08-04T19:30:00.314Z,99334.77
2018-08-04T19:32:29.490Z,99336.61
2018-08-04T19:34:58.625Z,99334.45
2018-08-04T19:37:27.826Z,99343.48
2018-08-04T19:39:57.845Z,99345.84
2018-08-04T19:42:27.118Z,99356.58
2018-08-04T19:44:56.371Z,99359.43
2018-08-04T19:47:25.522Z,99360.77
2018-08-04T19:49:54.978Z,99362.93
2018-08-04T19:52:24.099Z,99356.91
2018-08-04T19:54:59.917Z,99347.16
2018-08-04T19:57:29.093Z,99353.17
2018-08-04T19:59:58.291Z,99366.95
2018-08-04T20:02:27.441Z,99365.42
2018-08-04T20:04:56.591Z,99363.55
2018-08-04T20:07:25.773Z,99363.91
2018-08-04T20:09:55.017Z,99369.28
2018-08-04T20:12:24.167Z,99371.97
2018-08-04T20:14:53.477Z,99374.29
2018-08-04T20:17:22.562Z,99374.29
2018-08-04T20:19:51.717Z,99373.97
2018-08-04T20:22:20.861Z,99383.36
2018-08-04T20:24:50.026Z,99384.37
2018-08-04T20:27:19.206Z,99389.73
2018-08-04T20:29:48.378Z,99390.72
2018-08-04T20:32:17.598Z,99388.89
2018-08-04T20:34:46.776Z,99396.25
2018-08-04T20:37:15.953Z,99390.03
2018-08-04T20:39:46.147Z,99390.56
2018-08-04T20:42:15.322Z,99394.22
2018-08-04T20:44:44.574Z,99400.11
2018-08-04T20:47:13.647Z,99397.92
2018-08-04T20:49:42.845Z,99401.58
2018-08-04T20:52:12.046Z,99403.45
2018-08-04T20:54:41.206Z,99409.14
2018-08-04T20:57:10.383Z,99403.61
2018-08-04T20:59:39.608Z,99406.45
2018-08-04T21:02:08.753Z,99413.16
2018-08-04T21:04:37.954Z,99405.24
2018-08-04T21:07:07.548Z,99413.98
2018-08-04T21:09:36.714Z,99408.45
2018-08-04T21:12:05.933Z,99411.63
2018-08-04T21:14:35.132Z,99406.74
2018-08-04T21:17:04.317Z,99414.47
2018-08-04T21:19:33.508Z,99412.27
2018-08-04T21:22:02.694Z,99418.98
2018-08-04T21:24:31.862Z,99418.00
2018-08-04T21:27:01.026Z,99410.08
2018-08-04T21:29:30.169Z,99415.81
2018-08-04T21:31:59.334Z,99417.93
2018-08-04T21:34:28.529Z,99421.47
2018-08-04T21:36:57.709Z,99417.08
2018-08-04T21:39:26.846Z,99422.12
2018-08-04T21:41:56.023Z,99422.61
2018-08-04T21:44:25.271Z,99423.62
2018-08-04T21:46:54.436Z,99419.75
2018-08-04T21:49:23.570Z,99420.24
2018-08-04T21:51:52.697Z,99426.62
2018-08-04T21:54:21.952Z,99428.45
2018-08-04T21:56:51.114Z,99432.48
2018-08-04T21:59:20.270Z,99430.77
2018-08-04T22:01:55.655Z,99426.58
2018-08-04T22:04:25.035Z,99426.73
2018-08-04T22:08:06.694Z,99424.38
2018-08-04T22:10:35.937Z,99428.89
2018-08-04T22:13:05.295Z,99433.56
2018-08-04T22:15:34.367Z,99438.92
2018-08-04T22:18:03.622Z,99444.78
2018-08-04T22:20:32.856Z,99445.80
2018-08-04T22:23:02.106Z,99444.13
2018-08-04T22:25:31.325Z,99441.44
2018-08-04T22:28:00.550Z,99442.78
2018-08-04T22:30:29.686Z,99443.77
2018-08-04T22:32:58.893Z,99449.12
2018-08-04T22:35:28.055Z,99441.23
2018-08-04T22:37:57.234Z,99437.70
2018-08-04T22:40:26.414Z,99434.20
2018-08-04T22:42:55.623Z,99431.47
2018-08-04T22:46:27.938Z,99433.84
2018-08-04T22:48:57.095Z,99435.66
2018-08-04T22:51:28.697Z,99431.27
2018-08-04T22:53:57.921Z,99433.95
2018-08-04T22:56:27.122Z,99433.62
2018-08-04T22:58:56.298Z,99438.66
2018-08-04T23:01:25.446Z,99444.02
2018-08-04T23:03:54.658Z,99433.40
2018-08-04T23:06:23.818Z,99433.89
2018-08-04T23:08:53.128Z,99441.12
2018-08-04T23:11:22.339Z,99439.95
2018-08-04T23:13:51.561Z,99442.47
2018-08-04T23:16:20.718Z,99448.48
2018-08-04T23:18:49.902Z,99452.17
2018-08-04T23:21:19.150Z,99453.19
2018-08-04T23:23:48.306Z,99455.86
2018-08-04T23:26:17.481Z,99457.85
2018-08-04T23:28:46.652Z,99462.36
2018-08-04T23:31:15.790Z,99462.03
2018-08-04T23:33:44.956Z,99461.66
2018-08-04T23:36:14.152Z,99468.04
2018-08-04T23:38:43.298Z,99464.50
2018-08-04T23:41:12.587Z,99468.53
2018-08-04T23:43:41.738Z,99467.02
2018-08-04T23:46:10.906Z,99466.16
2018-08-04T23:48:40.074Z,99465.80
2018-08-04T23:51:09.268Z,99473.50
2018-08-04T23:53:38.505Z,99474.52
2018-08-04T23:56:07.697Z,99470.65
2018-08-04T23:58:36.923Z,99470.65
